sensor_id;sensor_type;location;lat;lon;timestamp;pressure;altitude;pressure_sealevel;temperature;humidity
55032;BME280;40928;51.076;7.950;2023-10-31T00:00:10;95106.00;;;10.95;100.00
55032;BME280;40928;51.076;7.950;2023-10-31T00:02:38;95093.72;;;10.94;100.00
55032;BME280;40928;51.076;7.950;2023-10-31T00:05:04;95104.41;;;10.94;100.00
55032;BME280;40928;51.076;7.950;2023-10-31T00:07:30;95119.75;;;10.83;100.00
55032;BME280;40928;51.076;7.950;2023-10-31T00:09:55;95134.06;;;10.73;100.00
55032;BME280;40928;51.076;7.950;2023-10-31T00:12:21;95128.81;;;10.63;100.00
55032;BME280;40928;51.076;7.950;2023-10-31T00:14:47;95141.06;;;10.45;100.00
55032;BME280;40928;51.076;7.950;2023-10-31T00:17:12;95141.41;;;10.33;100.00
55032;BME280;40928;51.076;7.950;2023-10-31T00:19:38;95147.09;;;10.26;100.00
55032;BME280;40928;51.076;7.950;2023-10-31T00:22:04;95144.19;;;10.23;100.00
55032;BME280;40928;51.076;7.950;2023-10-31T00:24:30;95160.28;;;10.12;100.00
55032;BME280;40928;51.076;7.950;2023-10-31T00:26:58;95144.88;;;10.09;100.00
55032;BME280;40928;51.076;7.950;2023-10-31T00:29:23;95178.59;;;9.95;100.00
55032;BME280;40928;51.076;7.950;2023-10-31T00:31:49;95186.84;;;9.93;100.00
55032;BME280;40928;51.076;7.950;2023-10-31T00:34:15;95184.09;;;9.74;100.00
55032;BME280;40928;51.076;7.950;2023-10-31T00:36:41;95193.75;;;9.65;100.00
55032;BME280;40928;51.076;7.950;2023-10-31T00:39:06;95189.56;;;9.53;100.00
55032;BME280;40928;51.076;7.950;2023-10-31T00:41:32;95208.19;;;9.58;100.00
55032;BME280;40928;51.076;7.950;2023-10-31T00:43:58;95198.06;;;9.55;100.00
55032;BME280;40928;51.076;7.950;2023-10-31T00:46:24;95204.78;;;9.48;100.00
55032;BME280;40928;51.076;7.950;2023-10-31T00:48:49;95202.13;;;9.48;100.00
55032;BME280;40928;51.076;7.950;2023-10-31T00:51:15;95210.94;;;9.48;100.00
55032;BME280;40928;51.076;7.950;2023-10-31T00:53:41;95211.72;;;9.43;100.00
55032;BME280;40928;51.076;7.950;2023-10-31T00:56:07;95220.50;;;9.49;100.00
55032;BME280;40928;51.076;7.950;2023-10-31T00:58:33;95217.88;;;9.44;100.00
55032;BME280;40928;51.076;7.950;2023-10-31T01:00:59;95204.81;;;9.42;100.00
55032;BME280;40928;51.076;7.950;2023-10-31T01:03:25;95205.34;;;9.44;100.00
55032;BME280;40928;51.076;7.950;2023-10-31T01:05:51;95209.59;;;9.45;100.00
55032;BME280;40928;51.076;7.950;2023-10-31T01:08:16;95212.56;;;9.39;100.00
55032;BME280;40928;51.076;7.950;2023-10-31T01:10:42;95214.97;;;9.40;100.00
55032;BME280;40928;51.076;7.950;2023-10-31T01:13:08;95212.31;;;9.40;100.00
55032;BME280;40928;51.076;7.950;2023-10-31T01:15:33;95202.72;;;9.39;100.00
55032;BME280;40928;51.076;7.950;2023-10-31T01:17:59;95206.16;;;9.40;100.00
55032;BME280;40928;51.076;7.950;2023-10-31T01:20:25;95212.31;;;9.35;100.00
55032;BME280;40928;51.076;7.950;2023-10-31T01:22:51;95224.34;;;9.33;100.00
55032;BME280;40928;51.076;7.950;2023-10-31T01:25:16;95217.41;;;9.32;100.00
55032;BME280;40928;51.076;7.950;2023-10-31T01:27:42;95222.16;;;9.35;100.00
55032;BME280;40928;51.076;7.950;2023-10-31T01:30:09;95221.41;;;9.29;100.00
55032;BME280;40928;51.076;7.950;2023-10-31T01:32:35;95228.59;;;9.28;100.00
55032;BME280;40928;51.076;7.950;2023-10-31T01:35:01;95235.78;;;9.28;100.00
55032;BME280;40928;51.076;7.950;2023-10-31T01:37:27;95229.69;;;9.27;100.00
55032;BME280;40928;51.076;7.950;2023-10-31T01:39:53;95225.72;;;9.25;100.00
55032;BME280;40928;51.076;7.950;2023-10-31T01:42:19;95233.69;;;9.25;100.00
55032;BME280;40928;51.076;7.950;2023-10-31T01:44:45;95219.63;;;9.14;100.00
55032;BME280;40928;51.076;7.950;2023-10-31T01:47:11;95229.16;;;9.25;100.00
55032;BME280;40928;51.076;7.950;2023-10-31T01:49:36;95231.03;;;9.25;100.00
55032;BME280;40928;51.076;7.950;2023-10-31T01:52:04;95237.69;;;9.22;100.00
55032;BME280;40928;51.076;7.950;2023-10-31T01:54:32;95234.53;;;9.15;100.00
55032;BME280;40928;51.076;7.950;2023-10-31T01:57:01;95235.06;;;9.17;100.00
55032;BME280;40928;51.076;7.950;2023-10-31T01:59:28;95232.13;;;9.13;100.00
55032;BME280;40928;51.076;7.950;2023-10-31T02:01:55;95234.00;;;9.13;100.00
55032;BME280;40928;51.076;7.950;2023-10-31T02:04:22;95234.56;;;9.05;100.00
55032;BME280;40928;51.076;7.950;2023-10-31T02:06:48;95239.09;;;9.09;100.00
55032;BME280;40928;51.076;7.950;2023-10-31T02:09:13;95241.19;;;9.12;100.00
55032;BME280;40928;51.076;7.950;2023-10-31T02:11:39;95240.69;;;9.10;100.00
55032;BME280;40928;51.076;7.950;2023-10-31T02:14:05;95243.59;;;9.09;100.00
55032;BME280;40928;51.076;7.950;2023-10-31T02:16:31;95254.25;;;9.09;100.00
55032;BME280;40928;51.076;7.950;2023-10-31T02:18:57;95248.94;;;9.09;100.00
55032;BME280;40928;51.076;7.950;2023-10-31T02:21:25;95250.81;;;9.03;100.00
55032;BME280;40928;51.076;7.950;2023-10-31T02:24:03;95247.88;;;9.05;100.00
55032;BME280;40928;51.076;7.950;2023-10-31T02:26:34;95259.09;;;9.02;100.00
55032;BME280;40928;51.076;7.950;2023-10-31T02:29:01;95258.28;;;9.01;100.00
55032;BME280;40928;51.076;7.950;2023-10-31T02:31:27;95261.47;;;8.98;100.00
55032;BME280;40928;51.076;7.950;2023-10-31T02:33:53;95264.19;;;8.93;100.00
55032;BME280;40928;51.076;7.950;2023-10-31T02:36:19;95263.91;;;8.94;100.00
55032;BME280;40928;51.076;7.950;2023-10-31T02:38:45;95261.78;;;8.91;100.00
55032;BME280;40928;51.076;7.950;2023-10-31T02:41:11;95271.94;;;8.84;100.00
55032;BME280;40928;51.076;7.950;2023-10-31T02:43:38;95267.38;;;8.84;100.00
55032;BME280;40928;51.076;7.950;2023-10-31T02:46:04;95264.19;;;8.88;100.00
55032;BME280;40928;51.076;7.950;2023-10-31T02:48:29;95282.03;;;8.77;100.00
55032;BME280;40928;51.076;7.950;2023-10-31T02:50:57;95280.97;;;8.73;100.00
55032;BME280;40928;51.076;7.950;2023-10-31T02:53:23;95277.28;;;8.68;100.00
55032;BME280;40928;51.076;7.950;2023-10-31T02:55:49;95282.84;;;8.72;100.00
55032;BME280;40928;51.076;7.950;2023-10-31T02:58:14;95280.97;;;8.73;100.00
55032;BME280;40928;51.076;7.950;2023-10-31T03:00:42;95286.34;;;8.67;100.00
55032;BME280;40928;51.076;7.950;2023-10-31T03:03:08;95284.75;;;8.66;100.00
55032;BME280;40928;51.076;7.950;2023-10-31T03:05:34;95279.41;;;8.66;100.00
55032;BME280;40928;51.076;7.950;2023-10-31T03:08:00;95271.97;;;8.68;100.00
55032;BME280;40928;51.076;7.950;2023-10-31T03:12:59;95272.50;;;8.60;100.00
55032;BME280;40928;51.076;7.950;2023-10-31T03:18:31;95271.72;;;8.55;100.00
55032;BME280;40928;51.076;7.950;2023-10-31T03:20:56;95282.34;;;8.60;100.00
55032;BME280;40928;51.076;7.950;2023-10-31T03:23:22;95283.94;;;8.56;100.00
55032;BME280;40928;51.076;7.950;2023-10-31T03:25:47;95291.94;;;8.50;100.00
55032;BME280;40928;51.076;7.950;2023-10-31T03:28:20;95285.84;;;8.55;100.00
55032;BME280;40928;51.076;7.950;2023-10-31T03:30:48;95282.63;;;8.48;100.00
55032;BME280;40928;51.076;7.950;2023-10-31T03:33:14;95276.78;;;8.51;100.00
55032;BME280;40928;51.076;7.950;2023-10-31T03:35:40;95288.50;;;8.50;100.00
55032;BME280;40928;51.076;7.950;2023-10-31T03:38:06;95281.00;;;8.42;100.00
55032;BME280;40928;51.076;7.950;2023-10-31T03:40:32;95284.22;;;8.33;100.00
55032;BME280;40928;51.076;7.950;2023-10-31T03:42:57;95294.56;;;8.35;100.00
55032;BME280;40928;51.076;7.950;2023-10-31T03:45:23;95298.59;;;8.37;100.00
55032;BME280;40928;51.076;7.950;2023-10-31T03:47:49;95300.16;;;8.33;100.00
55032;BME280;40928;51.076;7.950;2023-10-31T03:50:15;95302.28;;;8.31;100.00
55032;BME280;40928;51.076;7.950;2023-10-31T03:52:41;95304.69;;;8.43;100.00
55032;BME280;40928;51.076;7.950;2023-10-31T03:55:07;95311.88;;;8.32;100.00
55032;BME280;40928;51.076;7.950;2023-10-31T03:57:33;95314.00;;;8.41;100.00
55032;BME280;40928;51.076;7.950;2023-10-31T04:00:00;95319.03;;;8.37;100.00
55032;BME280;40928;51.076;7.950;2023-10-31T04:02:26;95312.41;;;8.40;100.00
55032;BME280;40928;51.076;7.950;2023-10-31T04:04:51;95318.53;;;8.40;100.00
55032;BME280;40928;51.076;7.950;2023-10-31T04:07:17;95312.66;;;8.43;100.00
55032;BME280;40928;51.076;7.950;2023-10-31T04:09:43;95320.66;;;8.38;100.00
55032;BME280;40928;51.076;7.950;2023-10-31T04:12:08;95317.19;;;8.43;100.00
55032;BME280;40928;51.076;7.950;2023-10-31T04:14:34;95325.72;;;8.34;100.00
55032;BME280;40928;51.076;7.950;2023-10-31T04:17:00;95322.78;;;8.36;100.00
55032;BME280;40928;51.076;7.950;2023-10-31T04:19:25;95331.31;;;8.33;100.00
55032;BME280;40928;51.076;7.950;2023-10-31T04:21:53;95333.16;;;8.32;100.00
55032;BME280;40928;51.076;7.950;2023-10-31T04:24:19;95332.63;;;8.30;100.00
55032;BME280;40928;51.076;7.950;2023-10-31T04:26:44;95341.13;;;8.37;100.00
55032;BME280;40928;51.076;7.950;2023-10-31T04:29:10;95328.66;;;8.33;100.00
55032;BME280;40928;51.076;7.950;2023-10-31T04:31:35;95334.75;;;8.33;100.00
55032;BME280;40928;51.076;7.950;2023-10-31T04:34:01;95345.66;;;8.37;100.00
55032;BME280;40928;51.076;7.950;2023-10-31T04:36:27;95343.25;;;8.20;100.00
55032;BME280;40928;51.076;7.950;2023-10-31T04:38:53;95342.72;;;8.18;100.00
55032;BME280;40928;51.076;7.950;2023-10-31T04:41:18;95349.09;;;8.22;100.00
55032;BME280;40928;51.076;7.950;2023-10-31T04:43:44;95359.72;;;8.17;100.00
55032;BME280;40928;51.076;7.950;2023-10-31T04:46:10;95361.84;;;8.15;100.00
55032;BME280;40928;51.076;7.950;2023-10-31T04:48:35;95353.88;;;8.15;100.00
55032;BME280;40928;51.076;7.950;2023-10-31T04:51:01;95363.19;;;8.17;100.00
55032;BME280;40928;51.076;7.950;2023-10-31T04:53:27;95361.88;;;8.30;100.00
55032;BME280;40928;51.076;7.950;2023-10-31T04:55:53;95366.91;;;8.27;100.00
55032;BME280;40928;51.076;7.950;2023-10-31T04:58:18;95362.94;;;8.24;100.00
55032;BME280;40928;51.076;7.950;2023-10-31T05:00:45;95369.31;;;8.18;100.00
55032;BME280;40928;51.076;7.950;2023-10-31T05:03:10;95369.03;;;8.25;100.00
55032;BME280;40928;51.076;7.950;2023-10-31T05:05:36;95369.84;;;8.20;100.00
55032;BME280;40928;51.076;7.950;2023-10-31T05:08:02;95364.00;;;8.18;100.00
55032;BME280;40928;51.076;7.950;2023-10-31T05:10:27;95368.25;;;8.08;100.00
55032;BME280;40928;51.076;7.950;2023-10-31T05:12:53;95377.25;;;8.13;100.00
55032;BME280;40928;51.076;7.950;2023-10-31T05:15:19;95373.84;;;8.17;100.00
55032;BME280;40928;51.076;7.950;2023-10-31T05:17:44;95378.06;;;8.13;100.00
55032;BME280;40928;51.076;7.950;2023-10-31T05:20:10;95381.53;;;8.14;100.00
55032;BME280;40928;51.076;7.950;2023-10-31T05:22:36;95380.47;;;8.15;100.00
55032;BME280;40928;51.076;7.950;2023-10-31T05:25:02;95370.88;;;8.14;100.00
55032;BME280;40928;51.076;7.950;2023-10-31T05:27:29;95382.84;;;8.11;100.00
55032;BME280;40928;51.076;7.950;2023-10-31T05:29:54;95380.47;;;8.15;100.00
55032;BME280;40928;51.076;7.950;2023-10-31T05:32:20;95390.31;;;8.14;100.00
55032;BME280;40928;51.076;7.950;2023-10-31T05:34:45;95378.31;;;8.12;100.00
55032;BME280;40928;51.076;7.950;2023-10-31T05:37:11;95388.97;;;8.12;100.00
55032;BME280;40928;51.076;7.950;2023-10-31T05:39:37;95396.44;;;8.10;100.00
55032;BME280;40928;51.076;7.950;2023-10-31T05:42:03;95402.25;;;8.12;100.00
55032;BME280;40928;51.076;7.950;2023-10-31T05:44:29;95399.09;;;8.10;100.00
55032;BME280;40928;51.076;7.950;2023-10-31T05:46:54;95410.78;;;8.08;100.00
55032;BME280;40928;51.076;7.950;2023-10-31T05:49:20;95409.16;;;8.13;100.00
55032;BME280;40928;51.076;7.950;2023-10-31T05:51:52;95423.53;;;8.12;100.00
55032;BME280;40928;51.076;7.950;2023-10-31T05:54:18;95425.13;;;8.13;100.00
55032;BME280;40928;51.076;7.950;2023-10-31T05:56:43;95421.41;;;8.08;100.00
55032;BME280;40928;51.076;7.950;2023-10-31T05:59:13;95425.91;;;8.08;100.00
55032;BME280;40928;51.076;7.950;2023-10-31T06:01:39;95429.34;;;7.98;100.00
55032;BME280;40928;51.076;7.950;2023-10-31T06:04:05;95424.06;;;8.08;100.00
55032;BME280;40928;51.076;7.950;2023-10-31T06:06:33;95401.69;;;7.94;100.00
55032;BME280;40928;51.076;7.950;2023-10-31T06:08:59;95430.44;;;8.07;100.00
55032;BME280;40928;51.076;7.950;2023-10-31T06:11:28;95430.97;;;8.10;100.00
55032;BME280;40928;51.076;7.950;2023-10-31T06:14:17;95440.53;;;8.05;100.00
55032;BME280;40928;51.076;7.950;2023-10-31T06:16:48;95438.66;;;8.06;100.00
55032;BME280;40928;51.076;7.950;2023-10-31T06:19:14;95441.06;;;8.02;100.00
55032;BME280;40928;51.076;7.950;2023-10-31T06:21:40;95443.97;;;8.01;100.00
55032;BME280;40928;51.076;7.950;2023-10-31T06:24:06;95443.16;;;8.00;100.00
55032;BME280;40928;51.076;7.950;2023-10-31T06:26:32;95446.88;;;7.99;100.00
55032;BME280;40928;51.076;7.950;2023-10-31T06:28:58;95448.50;;;8.00;100.00
55032;BME280;40928;51.076;7.950;2023-10-31T06:31:23;95457.78;;;7.98;100.00
55032;BME280;40928;51.076;7.950;2023-10-31T06:33:49;95447.16;;;7.98;100.00
55032;BME280;40928;51.076;7.950;2023-10-31T06:36:15;95442.94;;;8.02;100.00
55032;BME280;40928;51.076;7.950;2023-10-31T06:38:40;95460.19;;;8.04;100.00
55032;BME280;40928;51.076;7.950;2023-10-31T06:41:06;95455.16;;;8.08;100.00
55032;BME280;40928;51.076;7.950;2023-10-31T06:43:31;95460.22;;;8.10;100.00
55032;BME280;40928;51.076;7.950;2023-10-31T06:45:58;95456.25;;;8.12;100.00
55032;BME280;40928;51.076;7.950;2023-10-31T06:48:26;95453.81;;;8.11;100.00
55032;BME280;40928;51.076;7.950;2023-10-31T06:50:51;95461.81;;;8.11;100.00
55032;BME280;40928;51.076;7.950;2023-10-31T06:53:17;95466.88;;;8.12;100.00
55032;BME280;40928;51.076;7.950;2023-10-31T06:55:42;95475.38;;;8.14;100.00
55032;BME280;40928;51.076;7.950;2023-10-31T06:58:08;95464.47;;;8.11;100.00
55032;BME280;40928;51.076;7.950;2023-10-31T07:00:34;95470.09;;;8.25;100.00
55032;BME280;40928;51.076;7.950;2023-10-31T07:02:59;95474.09;;;8.22;100.00
55032;BME280;40928;51.076;7.950;2023-10-31T07:05:30;95479.09;;;8.13;100.00
55032;BME280;40928;51.076;7.950;2023-10-31T07:07:56;95483.63;;;8.13;100.00
55032;BME280;40928;51.076;7.950;2023-10-31T07:10:22;95478.84;;;8.10;100.00
55032;BME280;40928;51.076;7.950;2023-10-31T07:12:47;95483.06;;;8.05;100.00
55032;BME280;40928;51.076;7.950;2023-10-31T07:15:13;95489.47;;;8.10;100.00
55032;BME280;40928;51.076;7.950;2023-10-31T07:17:39;95497.97;;;8.12;100.00
55032;BME280;40928;51.076;7.950;2023-10-31T07:20:06;95490.53;;;8.08;100.00
55032;BME280;40928;51.076;7.950;2023-10-31T07:22:32;95501.16;;;8.14;100.00
55032;BME280;40928;51.076;7.950;2023-10-31T07:24:59;95504.38;;;8.16;100.00
55032;BME280;40928;51.076;7.950;2023-10-31T07:27:29;95510.22;;;8.18;100.00
55032;BME280;40928;51.076;7.950;2023-10-31T07:29:54;95513.44;;;8.20;100.00
55032;BME280;40928;51.076;7.950;2023-10-31T07:32:20;95516.09;;;8.20;100.00
55032;BME280;40928;51.076;7.950;2023-10-31T07:34:45;95513.47;;;8.25;100.00
55032;BME280;40928;51.076;7.950;2023-10-31T07:37:11;95517.94;;;8.19;100.00
55032;BME280;40928;51.076;7.950;2023-10-31T07:39:36;95528.31;;;8.21;100.00
55032;BME280;40928;51.076;7.950;2023-10-31T07:42:02;95528.88;;;8.23;100.00
55032;BME280;40928;51.076;7.950;2023-10-31T07:44:28;95533.13;;;8.24;100.00
55032;BME280;40928;51.076;7.950;2023-10-31T07:46:55;95540.28;;;8.23;100.00
55032;BME280;40928;51.076;7.950;2023-10-31T07:49:21;95538.97;;;8.21;100.00
55032;BME280;40928;51.076;7.950;2023-10-31T07:51:47;95536.84;;;8.23;100.00
55032;BME280;40928;51.076;7.950;2023-10-31T07:54:14;95545.88;;;8.22;100.00
55032;BME280;40928;51.076;7.950;2023-10-31T07:56:40;95539.25;;;8.30;100.00
55032;BME280;40928;51.076;7.950;2023-10-31T07:59:08;95534.47;;;8.27;100.00
55032;BME280;40928;51.076;7.950;2023-10-31T08:01:34;95543.78;;;8.24;100.00
55032;BME280;40928;51.076;7.950;2023-10-31T08:04:00;95541.63;;;8.26;100.00
55032;BME280;40928;51.076;7.950;2023-10-31T08:06:26;95550.69;;;8.25;100.00
55032;BME280;40928;51.076;7.950;2023-10-31T08:08:52;95549.88;;;8.25;100.00
55032;BME280;40928;51.076;7.950;2023-10-31T08:11:18;95552.25;;;8.26;100.00
55032;BME280;40928;51.076;7.950;2023-10-31T08:13:44;95558.38;;;8.21;100.00
55032;BME280;40928;51.076;7.950;2023-10-31T08:16:09;95565.59;;;8.31;100.00
55032;BME280;40928;51.076;7.950;2023-10-31T08:18:35;95570.88;;;8.21;100.00
55032;BME280;40928;51.076;7.950;2023-10-31T08:21:02;95579.13;;;8.25;100.00
55032;BME280;40928;51.076;7.950;2023-10-31T08:23:29;95590.81;;;8.23;100.00
55032;BME280;40928;51.076;7.950;2023-10-31T08:25:55;95591.63;;;8.24;100.00
55032;BME280;40928;51.076;7.950;2023-10-31T08:28:21;95590.81;;;8.23;100.00
55032;BME280;40928;51.076;7.950;2023-10-31T08:30:46;95602.50;;;8.22;100.00
55032;BME280;40928;51.076;7.950;2023-10-31T08:33:12;95604.13;;;8.23;100.00
55032;BME280;40928;51.076;7.950;2023-10-31T08:35:38;95601.44;;;8.23;100.00
55032;BME280;40928;51.076;7.950;2023-10-31T08:38:04;95601.72;;;8.27;100.00
55032;BME280;40928;51.076;7.950;2023-10-31T08:40:29;95608.66;;;8.28;100.00
55032;BME280;40928;51.076;7.950;2023-10-31T08:42:55;95611.84;;;8.30;100.00
55032;BME280;40928;51.076;7.950;2023-10-31T08:45:21;95617.16;;;8.30;100.00
55032;BME280;40928;51.076;7.950;2023-10-31T08:47:47;95621.44;;;8.31;100.00
55032;BME280;40928;51.076;7.950;2023-10-31T08:50:12;95625.19;;;8.35;100.00
55032;BME280;40928;51.076;7.950;2023-10-31T08:52:39;95634.72;;;8.31;100.00
55032;BME280;40928;51.076;7.950;2023-10-31T08:55:05;95630.47;;;8.30;100.00
55032;BME280;40928;51.076;7.950;2023-10-31T08:57:33;95633.69;;;8.32;100.00
55032;BME280;40928;51.076;7.950;2023-10-31T08:59:59;95631.84;;;8.38;100.00
55032;BME280;40928;51.076;7.950;2023-10-31T09:02:25;95636.06;;;8.34;100.00
55032;BME280;40928;51.076;7.950;2023-10-31T09:04:52;95635.28;;;8.33;100.00
55032;BME280;40928;51.076;7.950;2023-10-31T09:07:17;95644.31;;;8.32;100.00
55032;BME280;40928;51.076;7.950;2023-10-31T09:09:43;95653.94;;;8.38;100.00
55032;BME280;40928;51.076;7.950;2023-10-31T09:12:08;95659.50;;;8.37;100.00
55032;BME280;40928;51.076;7.950;2023-10-31T09:14:34;95662.91;;;8.27;100.00
55032;BME280;40928;51.076;7.950;2023-10-31T09:17:01;95670.91;;;8.32;100.00
55032;BME280;40928;51.076;7.950;2023-10-31T09:19:26;95674.34;;;8.28;100.00
55032;BME280;40928;51.076;7.950;2023-10-31T09:21:55;95680.47;;;8.28;100.00
55032;BME280;40928;51.076;7.950;2023-10-31T09:24:20;95691.38;;;8.27;100.00
55032;BME280;40928;51.076;7.950;2023-10-31T09:26:46;95700.41;;;8.26;100.00
55032;BME280;40928;51.076;7.950;2023-10-31T09:29:11;95709.16;;;8.21;100.00
55032;BME280;40928;51.076;7.950;2023-10-31T09:31:37;95707.81;;;8.23;100.00
55032;BME280;40928;51.076;7.950;2023-10-31T09:34:03;95707.53;;;8.20;100.00
55032;BME280;40928;51.076;7.950;2023-10-31T09:36:31;95724.06;;;8.27;100.00
55032;BME280;40928;51.076;7.950;2023-10-31T09:38:57;95722.50;;;8.31;100.00
55032;BME280;40928;51.076;7.950;2023-10-31T09:41:23;95725.94;;;8.27;100.00
55032;BME280;40928;51.076;7.950;2023-10-31T09:43:49;95722.19;;;8.22;100.00
55032;BME280;40928;51.076;7.950;2023-10-31T09:46:16;95721.66;;;8.26;100.00
55032;BME280;40928;51.076;7.950;2023-10-31T09:48:43;95721.38;;;8.22;100.00
55032;BME280;40928;51.076;7.950;2023-10-31T09:51:09;95729.38;;;8.27;100.00
55032;BME280;40928;51.076;7.950;2023-10-31T09:53:37;95727.53;;;8.28;100.00
55032;BME280;40928;51.076;7.950;2023-10-31T09:56:07;95742.72;;;8.32;100.00
55032;BME280;40928;51.076;7.950;2023-10-31T09:58:33;95734.19;;;8.25;100.00
55032;BME280;40928;51.076;7.950;2023-10-31T10:00:59;95730.53;;;8.36;100.00
55032;BME280;40928;51.076;7.950;2023-10-31T10:03:26;95731.53;;;8.30;100.00
55032;BME280;40928;51.076;7.950;2023-10-31T10:05:52;95736.91;;;8.35;100.00
55032;BME280;40928;51.076;7.950;2023-10-31T10:08:19;95746.44;;;8.31;100.00
55032;BME280;40928;51.076;7.950;2023-10-31T10:10:45;95737.97;;;8.34;100.00
55032;BME280;40928;51.076;7.950;2023-10-31T10:13:11;95737.69;;;8.36;100.00
55032;BME280;40928;51.076;7.950;2023-10-31T10:15:51;95743.31;;;8.45;100.00
55032;BME280;40928;51.076;7.950;2023-10-31T10:18:30;95738.00;;;8.40;100.00
55032;BME280;40928;51.076;7.950;2023-10-31T10:20:57;95750.53;;;8.44;100.00
55032;BME280;40928;51.076;7.950;2023-10-31T10:23:23;95746.25;;;8.43;100.00
55032;BME280;40928;51.076;7.950;2023-10-31T10:25:50;95760.66;;;8.47;100.00
55032;BME280;40928;51.076;7.950;2023-10-31T10:28:16;95764.88;;;8.43;100.00
55032;BME280;40928;51.076;7.950;2023-10-31T10:30:42;95767.81;;;8.47;100.00
55032;BME280;40928;51.076;7.950;2023-10-31T10:33:08;95762.28;;;8.48;100.00
55032;BME280;40928;51.076;7.950;2023-10-31T10:35:33;95762.56;;;8.52;100.00
55032;BME280;40928;51.076;7.950;2023-10-31T10:37:59;95772.72;;;8.55;100.00
55032;BME280;40928;51.076;7.950;2023-10-31T10:40:27;95775.06;;;8.51;100.00
55032;BME280;40928;51.076;7.950;2023-10-31T10:42:55;95781.75;;;8.54;100.00
55032;BME280;40928;51.076;7.950;2023-10-31T10:45:25;95778.03;;;8.55;100.00
55032;BME280;40928;51.076;7.950;2023-10-31T10:47:51;95781.44;;;8.50;100.00
55032;BME280;40928;51.076;7.950;2023-10-31T10:50:20;95781.44;;;8.50;100.00
55032;BME280;40928;51.076;7.950;2023-10-31T10:55:51;95784.66;;;8.52;100.00
55032;BME280;40928;51.076;7.950;2023-10-31T10:58:27;95781.97;;;8.52;100.00
55032;BME280;40928;51.076;7.950;2023-10-31T11:00:57;95783.34;;;8.55;100.00
55032;BME280;40928;51.076;7.950;2023-10-31T11:03:24;95782.06;;;8.63;100.00
55032;BME280;40928;51.076;7.950;2023-10-31T11:05:53;95783.69;;;8.69;100.00
55032;BME280;40928;51.076;7.950;2023-10-31T11:08:20;95781.06;;;8.74;100.00
55032;BME280;40928;51.076;7.950;2023-10-31T11:10:48;95788.84;;;8.86;100.00
55032;BME280;40928;51.076;7.950;2023-10-31T11:13:15;95786.16;;;8.81;100.00
55032;BME280;40928;51.076;7.950;2023-10-31T11:15:42;95786.94;;;8.81;100.00
55032;BME280;40928;51.076;7.950;2023-10-31T11:18:09;95785.41;;;8.91;100.00
55032;BME280;40928;51.076;7.950;2023-10-31T11:20:36;95783.56;;;8.96;100.00
55032;BME280;40928;51.076;7.950;2023-10-31T11:23:02;95768.38;;;8.97;100.00
55032;BME280;40928;51.076;7.950;2023-10-31T11:25:32;95781.50;;;9.09;100.00
55032;BME280;40928;51.076;7.950;2023-10-31T11:28:18;95772.78;;;9.29;100.00
55032;BME280;40928;51.076;7.950;2023-10-31T11:30:49;95780.53;;;9.36;100.00
55032;BME280;40928;51.076;7.950;2023-10-31T11:33:18;95784.56;;;9.49;100.00
55032;BME280;40928;51.076;7.950;2023-10-31T11:35:59;95783.03;;;9.68;100.00
55032;BME280;40928;51.076;7.950;2023-10-31T11:38:37;95781.94;;;9.64;100.00
55032;BME280;40928;51.076;7.950;2023-10-31T11:41:04;95781.94;;;9.59;100.00
55032;BME280;40928;51.076;7.950;2023-10-31T11:46:04;95792.28;;;9.40;100.00
55032;BME280;40928;51.076;7.950;2023-10-31T11:48:51;95794.72;;;9.62;100.00
55032;BME280;40928;51.076;7.950;2023-10-31T11:51:17;95789.19;;;9.84;100.00
55032;BME280;40928;51.076;7.950;2023-10-31T11:53:43;95799.84;;;9.84;100.00
55032;BME280;40928;51.076;7.950;2023-10-31T11:56:18;95790.00;;;10.05;100.00
55032;BME280;40928;51.076;7.950;2023-10-31T11:58:44;95793.72;;;9.89;100.00
55032;BME280;40928;51.076;7.950;2023-10-31T12:01:10;95793.22;;;10.02;100.00
55032;BME280;40928;51.076;7.950;2023-10-31T12:03:41;95798.28;;;10.14;100.00
55032;BME280;40928;51.076;7.950;2023-10-31T12:06:08;95807.88;;;10.15;100.00
55032;BME280;40928;51.076;7.950;2023-10-31T12:08:36;95801.50;;;10.11;100.00
55032;BME280;40928;51.076;7.950;2023-10-31T12:11:23;95803.63;;;10.09;100.00
55032;BME280;40928;51.076;7.950;2023-10-31T12:13:57;95792.41;;;10.02;100.00
55032;BME280;40928;51.076;7.950;2023-10-31T12:16:27;95807.34;;;9.93;100.00
55032;BME280;40928;51.076;7.950;2023-10-31T12:19:01;95810.00;;;9.93;100.00
55032;BME280;40928;51.076;7.950;2023-10-31T12:24:13;95807.06;;;10.04;100.00
55032;BME280;40928;51.076;7.950;2023-10-31T12:26:39;95806.84;;;10.11;100.00
55032;BME280;40928;51.076;7.950;2023-10-31T12:29:17;95807.63;;;10.12;100.00
55032;BME280;40928;51.076;7.950;2023-10-31T12:31:47;95808.41;;;10.17;100.00
55032;BME280;40928;51.076;7.950;2023-10-31T12:34:24;95815.09;;;10.15;100.00
55032;BME280;40928;51.076;7.950;2023-10-31T12:36:54;95808.97;;;10.09;100.00
55032;BME280;40928;51.076;7.950;2023-10-31T12:39:28;95812.16;;;10.11;100.00
55032;BME280;40928;51.076;7.950;2023-10-31T12:41:54;95803.63;;;10.09;100.00
55032;BME280;40928;51.076;7.950;2023-10-31T12:44:26;95805.22;;;10.20;100.00
55032;BME280;40928;51.076;7.950;2023-10-31T12:46:52;95804.16;;;10.37;100.00
55032;BME280;40928;51.076;7.950;2023-10-31T12:49:19;95811.91;;;10.80;100.00
55032;BME280;40928;51.076;7.950;2023-10-31T12:52:04;95798.66;;;11.25;100.00
55032;BME280;40928;51.076;7.950;2023-10-31T12:54:38;95800.44;;;12.00;100.00
55032;BME280;40928;51.076;7.950;2023-10-31T12:57:08;95806.69;;;12.60;100.00
55032;BME280;40928;51.076;7.950;2023-10-31T12:59:36;95814.22;;;14.18;100.00
55032;BME280;40928;51.076;7.950;2023-10-31T13:02:03;95819.00;;;15.20;100.00
55032;BME280;40928;51.076;7.950;2023-10-31T13:04:32;95820.88;;;14.39;100.00
55032;BME280;40928;51.076;7.950;2023-10-31T13:07:01;95824.47;;;15.01;100.00
55032;BME280;40928;51.076;7.950;2023-10-31T13:09:32;95822.53;;;16.58;100.00
55032;BME280;40928;51.076;7.950;2023-10-31T13:12:01;95825.09;;;16.18;100.00